sensor_id;sensor_type;location;lat;lon;timestamp;P1;durP1;ratioP1;P2;durP2;ratioP2
72125;SDS011;59999;51.676;22.650;2022-10-26T00:00:07;26.77;;;12.90;;
72125;SDS011;59999;51.676;22.650;2022-10-26T00:02:54;25.13;;;12.37;;
72125;SDS011;59999;51.676;22.650;2022-10-26T00:05:21;25.63;;;12.65;;
72125;SDS011;59999;51.676;22.650;2022-10-26T00:07:48;25.88;;;12.95;;
72125;SDS011;59999;51.676;22.650;2022-10-26T00:10:14;24.08;;;12.05;;
72125;SDS011;59999;51.676;22.650;2022-10-26T00:12:40;26.67;;;12.60;;
72125;SDS011;59999;51.676;22.650;2022-10-26T00:15:07;26.17;;;12.87;;
72125;SDS011;59999;51.676;22.650;2022-10-26T00:17:33;27.75;;;12.93;;
72125;SDS011;59999;51.676;22.650;2022-10-26T00:19:59;24.27;;;11.85;;
72125;SDS011;59999;51.676;22.650;2022-10-26T00:22:27;24.27;;;11.88;;
72125;SDS011;59999;51.676;22.650;2022-10-26T00:24:53;26.70;;;12.23;;
72125;SDS011;59999;51.676;22.650;2022-10-26T00:27:19;26.58;;;12.20;;
72125;SDS011;59999;51.676;22.650;2022-10-26T00:29:44;25.50;;;12.25;;
72125;SDS011;59999;51.676;22.650;2022-10-26T00:32:11;27.50;;;11.53;;
72125;SDS011;59999;51.676;22.650;2022-10-26T00:34:36;25.17;;;12.10;;
72125;SDS011;59999;51.676;22.650;2022-10-26T00:37:03;25.90;;;12.02;;
72125;SDS011;59999;51.676;22.650;2022-10-26T00:39:28;27.63;;;13.20;;
72125;SDS011;59999;51.676;22.650;2022-10-26T00:41:55;24.97;;;12.37;;
72125;SDS011;59999;51.676;22.650;2022-10-26T00:50:03;25.42;;;12.35;;
72125;SDS011;59999;51.676;22.650;2022-10-26T00:52:35;26.93;;;12.20;;
72125;SDS011;59999;51.676;22.650;2022-10-26T00:55:04;26.63;;;13.02;;
72125;SDS011;59999;51.676;22.650;2022-10-26T00:57:32;25.90;;;12.25;;
72125;SDS011;59999;51.676;22.650;2022-10-26T00:59:59;24.90;;;12.55;;
72125;SDS011;59999;51.676;22.650;2022-10-26T01:02:25;31.17;;;12.80;;
72125;SDS011;59999;51.676;22.650;2022-10-26T01:04:51;27.80;;;13.30;;
72125;SDS011;59999;51.676;22.650;2022-10-26T01:07:19;27.55;;;12.82;;
72125;SDS011;59999;51.676;22.650;2022-10-26T01:09:45;30.80;;;13.60;;
72125;SDS011;59999;51.676;22.650;2022-10-26T01:12:11;28.27;;;13.48;;
72125;SDS011;59999;51.676;22.650;2022-10-26T01:14:37;31.07;;;11.93;;
72125;SDS011;59999;51.676;22.650;2022-10-26T01:22:39;27.65;;;12.85;;
72125;SDS011;59999;51.676;22.650;2022-10-26T01:25:14;25.90;;;12.73;;
72125;SDS011;59999;51.676;22.650;2022-10-26T01:27:56;26.00;;;12.23;;
72125;SDS011;59999;51.676;22.650;2022-10-26T01:30:26;29.38;;;13.02;;
72125;SDS011;59999;51.676;22.650;2022-10-26T01:41:38;29.20;;;12.90;;
72125;SDS011;59999;51.676;22.650;2022-10-26T01:46:46;28.52;;;12.77;;
72125;SDS011;59999;51.676;22.650;2022-10-26T01:49:17;26.25;;;12.25;;
72125;SDS011;59999;51.676;22.650;2022-10-26T01:51:48;25.37;;;12.07;;
72125;SDS011;59999;51.676;22.650;2022-10-26T01:54:15;29.30;;;12.65;;
72125;SDS011;59999;51.676;22.650;2022-10-26T01:56:42;29.52;;;13.07;;
72125;SDS011;59999;51.676;22.650;2022-10-26T02:02:14;24.70;;;11.55;;
72125;SDS011;59999;51.676;22.650;2022-10-26T02:09:59;24.98;;;12.50;;
72125;SDS011;59999;51.676;22.650;2022-10-26T02:15:44;26.42;;;11.82;;
72125;SDS011;59999;51.676;22.650;2022-10-26T02:18:22;30.17;;;12.67;;
72125;SDS011;59999;51.676;22.650;2022-10-26T02:21:04;23.15;;;12.02;;
72125;SDS011;59999;51.676;22.650;2022-10-26T02:23:34;27.05;;;12.23;;
72125;SDS011;59999;51.676;22.650;2022-10-26T02:26:04;26.48;;;11.20;;
72125;SDS011;59999;51.676;22.650;2022-10-26T02:28:33;31.80;;;12.90;;
72125;SDS011;59999;51.676;22.650;2022-10-26T02:31:04;25.47;;;11.83;;
72125;SDS011;59999;51.676;22.650;2022-10-26T02:33:36;26.05;;;12.30;;
72125;SDS011;59999;51.676;22.650;2022-10-26T02:36:06;26.75;;;12.45;;
72125;SDS011;59999;51.676;22.650;2022-10-26T02:38:35;26.55;;;12.02;;
72125;SDS011;59999;51.676;22.650;2022-10-26T02:41:03;23.88;;;11.70;;
72125;SDS011;59999;51.676;22.650;2022-10-26T02:43:31;26.17;;;12.70;;
72125;SDS011;59999;51.676;22.650;2022-10-26T02:46:06;29.00;;;12.32;;
72125;SDS011;59999;51.676;22.650;2022-10-26T02:48:34;25.25;;;12.45;;
72125;SDS011;59999;51.676;22.650;2022-10-26T02:51:11;27.73;;;12.65;;
72125;SDS011;59999;51.676;22.650;2022-10-26T02:53:48;26.42;;;12.20;;
72125;SDS011;59999;51.676;22.650;2022-10-26T02:56:26;28.60;;;12.87;;
72125;SDS011;59999;51.676;22.650;2022-10-26T02:58:58;25.13;;;12.70;;
72125;SDS011;59999;51.676;22.650;2022-10-26T03:01:29;31.48;;;12.48;;
72125;SDS011;59999;51.676;22.650;2022-10-26T03:03:56;27.17;;;12.60;;
72125;SDS011;59999;51.676;22.650;2022-10-26T03:06:23;28.52;;;12.68;;
72125;SDS011;59999;51.676;22.650;2022-10-26T03:08:49;28.10;;;13.07;;
72125;SDS011;59999;51.676;22.650;2022-10-26T03:11:16;26.30;;;12.65;;
72125;SDS011;59999;51.676;22.650;2022-10-26T03:13:42;25.85;;;12.20;;
72125;SDS011;59999;51.676;22.650;2022-10-26T03:16:08;31.42;;;13.07;;
72125;SDS011;59999;51.676;22.650;2022-10-26T03:18:34;30.02;;;12.45;;
72125;SDS011;59999;51.676;22.650;2022-10-26T03:21:01;27.93;;;13.00;;
72125;SDS011;59999;51.676;22.650;2022-10-26T03:23:26;28.15;;;12.23;;
72125;SDS011;59999;51.676;22.650;2022-10-26T03:25:56;30.40;;;12.98;;
72125;SDS011;59999;51.676;22.650;2022-10-26T03:28:23;32.40;;;13.27;;
72125;SDS011;59999;51.676;22.650;2022-10-26T03:30:49;30.45;;;13.35;;
72125;SDS011;59999;51.676;22.650;2022-10-26T03:33:16;28.30;;;12.83;;
72125;SDS011;59999;51.676;22.650;2022-10-26T03:35:42;27.30;;;13.15;;
72125;SDS011;59999;51.676;22.650;2022-10-26T03:38:08;27.63;;;12.95;;
72125;SDS011;59999;51.676;22.650;2022-10-26T03:40:35;32.95;;;14.75;;
72125;SDS011;59999;51.676;22.650;2022-10-26T03:43:01;30.87;;;13.87;;
72125;SDS011;59999;51.676;22.650;2022-10-26T03:45:28;29.48;;;12.70;;
72125;SDS011;59999;51.676;22.650;2022-10-26T03:47:53;27.83;;;12.93;;
72125;SDS011;59999;51.676;22.650;2022-10-26T03:50:20;27.63;;;11.90;;
72125;SDS011;59999;51.676;22.650;2022-10-26T03:52:47;26.48;;;11.52;;
72125;SDS011;59999;51.676;22.650;2022-10-26T03:55:14;27.17;;;13.05;;
72125;SDS011;59999;51.676;22.650;2022-10-26T03:57:40;34.80;;;13.30;;
72125;SDS011;59999;51.676;22.650;2022-10-26T04:00:11;30.77;;;14.55;;
72125;SDS011;59999;51.676;22.650;2022-10-26T04:02:42;36.70;;;13.33;;
72125;SDS011;59999;51.676;22.650;2022-10-26T04:05:17;32.72;;;13.60;;
72125;SDS011;59999;51.676;22.650;2022-10-26T04:07:43;29.80;;;13.13;;
72125;SDS011;59999;51.676;22.650;2022-10-26T04:10:16;30.80;;;12.85;;
72125;SDS011;59999;51.676;22.650;2022-10-26T04:12:42;32.10;;;13.03;;
72125;SDS011;59999;51.676;22.650;2022-10-26T04:15:08;29.10;;;13.30;;
72125;SDS011;59999;51.676;22.650;2022-10-26T04:17:34;28.02;;;13.27;;
72125;SDS011;59999;51.676;22.650;2022-10-26T04:20:00;35.60;;;14.38;;
72125;SDS011;59999;51.676;22.650;2022-10-26T04:22:26;34.57;;;14.13;;
72125;SDS011;59999;51.676;22.650;2022-10-26T04:24:52;29.75;;;13.43;;
72125;SDS011;59999;51.676;22.650;2022-10-26T04:27:18;26.67;;;13.57;;
72125;SDS011;59999;51.676;22.650;2022-10-26T04:29:44;28.23;;;13.93;;
72125;SDS011;59999;51.676;22.650;2022-10-26T04:32:10;29.87;;;13.50;;
72125;SDS011;59999;51.676;22.650;2022-10-26T04:34:36;28.48;;;13.25;;
72125;SDS011;59999;51.676;22.650;2022-10-26T04:37:02;29.42;;;13.50;;
72125;SDS011;59999;51.676;22.650;2022-10-26T04:39:28;31.03;;;13.67;;
72125;SDS011;59999;51.676;22.650;2022-10-26T04:41:54;36.38;;;14.15;;
72125;SDS011;59999;51.676;22.650;2022-10-26T04:44:20;31.63;;;14.50;;
72125;SDS011;59999;51.676;22.650;2022-10-26T04:46:46;36.42;;;14.88;;
72125;SDS011;59999;51.676;22.650;2022-10-26T04:49:12;28.73;;;13.77;;
72125;SDS011;59999;51.676;22.650;2022-10-26T04:51:38;32.05;;;13.63;;
72125;SDS011;59999;51.676;22.650;2022-10-26T04:54:04;30.33;;;14.30;;
72125;SDS011;59999;51.676;22.650;2022-10-26T04:56:30;30.13;;;12.65;;
72125;SDS011;59999;51.676;22.650;2022-10-26T04:58:56;33.57;;;14.20;;
72125;SDS011;59999;51.676;22.650;2022-10-26T05:01:22;27.80;;;13.43;;
72125;SDS011;59999;51.676;22.650;2022-10-26T05:03:49;37.30;;;16.23;;
72125;SDS011;59999;51.676;22.650;2022-10-26T05:06:15;39.58;;;15.55;;
72125;SDS011;59999;51.676;22.650;2022-10-26T05:08:41;37.47;;;15.37;;
72125;SDS011;59999;51.676;22.650;2022-10-26T05:11:07;39.15;;;17.63;;
72125;SDS011;59999;51.676;22.650;2022-10-26T05:13:33;36.88;;;16.13;;
72125;SDS011;59999;51.676;22.650;2022-10-26T05:15:59;42.78;;;17.85;;
72125;SDS011;59999;51.676;22.650;2022-10-26T05:18:25;46.40;;;18.60;;
72125;SDS011;59999;51.676;22.650;2022-10-26T05:20:52;43.10;;;18.13;;
72125;SDS011;59999;51.676;22.650;2022-10-26T05:23:18;40.78;;;17.95;;
72125;SDS011;59999;51.676;22.650;2022-10-26T05:25:44;42.85;;;17.08;;
72125;SDS011;59999;51.676;22.650;2022-10-26T05:28:11;43.40;;;17.73;;
72125;SDS011;59999;51.676;22.650;2022-10-26T05:30:39;52.58;;;18.80;;
72125;SDS011;59999;51.676;22.650;2022-10-26T05:33:07;44.05;;;18.02;;
72125;SDS011;59999;51.676;22.650;2022-10-26T05:35:34;49.92;;;17.80;;
72125;SDS011;59999;51.676;22.650;2022-10-26T05:38:08;47.55;;;18.23;;
72125;SDS011;59999;51.676;22.650;2022-10-26T05:40:35;46.20;;;16.83;;
72125;SDS011;59999;51.676;22.650;2022-10-26T05:43:02;43.25;;;17.17;;
72125;SDS011;59999;51.676;22.650;2022-10-26T05:45:28;43.83;;;18.55;;
72125;SDS011;59999;51.676;22.650;2022-10-26T05:47:55;41.40;;;17.80;;
72125;SDS011;59999;51.676;22.650;2022-10-26T05:50:20;48.00;;;18.73;;
72125;SDS011;59999;51.676;22.650;2022-10-26T05:52:47;51.83;;;21.45;;
72125;SDS011;59999;51.676;22.650;2022-10-26T05:55:14;45.47;;;20.15;;
72125;SDS011;59999;51.676;22.650;2022-10-26T05:57:42;50.20;;;18.38;;
72125;SDS011;59999;51.676;22.650;2022-10-26T06:00:10;47.05;;;17.48;;
72125;SDS011;59999;51.676;22.650;2022-10-26T06:05:29;41.05;;;17.23;;
72125;SDS011;59999;51.676;22.650;2022-10-26T06:08:12;41.67;;;17.75;;
72125;SDS011;59999;51.676;22.650;2022-10-26T06:10:38;43.65;;;18.20;;
72125;SDS011;59999;51.676;22.650;2022-10-26T06:13:05;40.40;;;16.40;;
72125;SDS011;59999;51.676;22.650;2022-10-26T06:15:31;39.30;;;17.23;;
72125;SDS011;59999;51.676;22.650;2022-10-26T06:26:22;38.28;;;16.20;;
72125;SDS011;59999;51.676;22.650;2022-10-26T06:31:43;37.25;;;16.10;;
72125;SDS011;59999;51.676;22.650;2022-10-26T06:34:10;37.47;;;16.90;;
72125;SDS011;59999;51.676;22.650;2022-10-26T06:36:40;39.00;;;16.90;;
72125;SDS011;59999;51.676;22.650;2022-10-26T06:39:08;37.15;;;15.52;;
72125;SDS011;59999;51.676;22.650;2022-10-26T06:41:36;39.83;;;16.97;;
72125;SDS011;59999;51.676;22.650;2022-10-26T06:44:03;37.30;;;16.33;;
72125;SDS011;59999;51.676;22.650;2022-10-26T06:46:44;36.30;;;15.50;;
72125;SDS011;59999;51.676;22.650;2022-10-26T06:49:18;36.53;;;16.88;;
72125;SDS011;59999;51.676;22.650;2022-10-26T06:51:59;45.38;;;17.73;;
72125;SDS011;59999;51.676;22.650;2022-10-26T06:57:19;35.40;;;15.45;;
72125;SDS011;59999;51.676;22.650;2022-10-26T06:59:51;38.50;;;15.23;;
72125;SDS011;59999;51.676;22.650;2022-10-26T07:02:20;34.28;;;15.68;;
72125;SDS011;59999;51.676;22.650;2022-10-26T07:04:46;35.17;;;14.77;;
72125;SDS011;59999;51.676;22.650;2022-10-26T07:07:19;28.90;;;13.27;;
72125;SDS011;59999;51.676;22.650;2022-10-26T07:09:47;34.05;;;14.00;;
72125;SDS011;59999;51.676;22.650;2022-10-26T07:12:14;31.10;;;13.57;;
72125;SDS011;59999;51.676;22.650;2022-10-26T07:14:40;35.67;;;14.00;;
72125;SDS011;59999;51.676;22.650;2022-10-26T07:17:06;29.10;;;13.00;;
72125;SDS011;59999;51.676;22.650;2022-10-26T07:19:33;33.55;;;14.10;;
72125;SDS011;59999;51.676;22.650;2022-10-26T07:21:59;28.85;;;13.07;;
72125;SDS011;59999;51.676;22.650;2022-10-26T07:24:26;34.50;;;13.55;;
72125;SDS011;59999;51.676;22.650;2022-10-26T07:26:53;28.57;;;12.23;;
72125;SDS011;59999;51.676;22.650;2022-10-26T07:29:21;28.67;;;12.88;;
72125;SDS011;59999;51.676;22.650;2022-10-26T07:31:51;32.28;;;13.35;;
72125;SDS011;59999;51.676;22.650;2022-10-26T07:34:17;29.15;;;12.27;;
72125;SDS011;59999;51.676;22.650;2022-10-26T07:36:44;30.92;;;12.98;;
72125;SDS011;59999;51.676;22.650;2022-10-26T07:39:10;28.03;;;12.37;;
72125;SDS011;59999;51.676;22.650;2022-10-26T07:41:36;27.02;;;11.40;;
72125;SDS011;59999;51.676;22.650;2022-10-26T07:44:02;26.52;;;11.38;;
72125;SDS011;59999;51.676;22.650;2022-10-26T07:46:28;27.33;;;12.37;;
72125;SDS011;59999;51.676;22.650;2022-10-26T07:48:54;26.73;;;11.55;;
72125;SDS011;59999;51.676;22.650;2022-10-26T07:51:20;23.77;;;10.65;;
72125;SDS011;59999;51.676;22.650;2022-10-26T07:53:46;26.25;;;11.13;;
72125;SDS011;59999;51.676;22.650;2022-10-26T07:56:12;22.57;;;9.97;;
72125;SDS011;59999;51.676;22.650;2022-10-26T07:58:38;25.50;;;11.80;;
72125;SDS011;59999;51.676;22.650;2022-10-26T08:01:08;31.15;;;12.05;;
72125;SDS011;59999;51.676;22.650;2022-10-26T08:03:36;26.48;;;11.57;;
72125;SDS011;59999;51.676;22.650;2022-10-26T08:06:03;27.70;;;11.67;;
72125;SDS011;59999;51.676;22.650;2022-10-26T08:08:30;26.20;;;11.77;;
72125;SDS011;59999;51.676;22.650;2022-10-26T08:10:56;25.05;;;11.38;;
72125;SDS011;59999;51.676;22.650;2022-10-26T08:13:23;25.77;;;11.27;;
72125;SDS011;59999;51.676;22.650;2022-10-26T08:15:48;24.50;;;10.57;;
72125;SDS011;59999;51.676;22.650;2022-10-26T08:18:15;21.63;;;10.23;;
72125;SDS011;59999;51.676;22.650;2022-10-26T08:20:40;20.42;;;10.32;;
72125;SDS011;59999;51.676;22.650;2022-10-26T08:23:06;22.20;;;9.43;;
72125;SDS011;59999;51.676;22.650;2022-10-26T08:25:33;20.80;;;9.77;;
72125;SDS011;59999;51.676;22.650;2022-10-26T08:27:59;18.97;;;8.83;;
72125;SDS011;59999;51.676;22.650;2022-10-26T08:30:29;17.75;;;8.02;;
72125;SDS011;59999;51.676;22.650;2022-10-26T08:32:57;20.98;;;8.48;;
72125;SDS011;59999;51.676;22.650;2022-10-26T08:35:27;16.88;;;8.13;;
72125;SDS011;59999;51.676;22.650;2022-10-26T08:37:53;19.13;;;7.72;;
72125;SDS011;59999;51.676;22.650;2022-10-26T08:40:21;16.30;;;7.60;;
72125;SDS011;59999;51.676;22.650;2022-10-26T08:42:57;24.90;;;9.32;;
72125;SDS011;59999;51.676;22.650;2022-10-26T08:45:37;18.70;;;8.40;;
72125;SDS011;59999;51.676;22.650;2022-10-26T08:48:14;17.35;;;7.90;;
72125;SDS011;59999;51.676;22.650;2022-10-26T08:53:26;15.40;;;6.13;;
72125;SDS011;59999;51.676;22.650;2022-10-26T08:58:27;17.45;;;7.57;;
72125;SDS011;59999;51.676;22.650;2022-10-26T09:00:58;17.55;;;7.38;;
72125;SDS011;59999;51.676;22.650;2022-10-26T09:03:25;14.38;;;6.65;;
72125;SDS011;59999;51.676;22.650;2022-10-26T09:14:20;21.80;;;9.07;;
72125;SDS011;59999;51.676;22.650;2022-10-26T09:25:12;16.30;;;7.93;;
72125;SDS011;59999;51.676;22.650;2022-10-26T09:27:47;18.52;;;7.63;;
72125;SDS011;59999;51.676;22.650;2022-10-26T09:30:19;50.00;;;17.87;;
72125;SDS011;59999;51.676;22.650;2022-10-26T09:32:47;28.63;;;10.55;;
72125;SDS011;59999;51.676;22.650;2022-10-26T09:35:19;34.28;;;11.15;;
72125;SDS011;59999;51.676;22.650;2022-10-26T09:37:49;19.45;;;8.05;;
72125;SDS011;59999;51.676;22.650;2022-10-26T09:40:21;56.25;;;26.10;;
72125;SDS011;59999;51.676;22.650;2022-10-26T09:45:51;21.13;;;8.20;;
72125;SDS011;59999;51.676;22.650;2022-10-26T09:48:19;16.55;;;7.20;;
72125;SDS011;59999;51.676;22.650;2022-10-26T09:50:47;19.65;;;7.72;;
72125;SDS011;59999;51.676;22.650;2022-10-26T09:53:14;16.13;;;7.90;;
72125;SDS011;59999;51.676;22.650;2022-10-26T09:55:45;18.43;;;6.43;;
72125;SDS011;59999;51.676;22.650;2022-10-26T09:58:14;14.73;;;6.38;;
72125;SDS011;59999;51.676;22.650;2022-10-26T10:00:45;18.00;;;7.35;;
72125;SDS011;59999;51.676;22.650;2022-10-26T10:03:24;19.23;;;8.25;;
72125;SDS011;59999;51.676;22.650;2022-10-26T10:05:52;16.67;;;7.75;;
72125;SDS011;59999;51.676;22.650;2022-10-26T10:08:20;20.30;;;7.57;;
72125;SDS011;59999;51.676;22.650;2022-10-26T10:10:57;19.98;;;8.73;;
72125;SDS011;59999;51.676;22.650;2022-10-26T10:13:28;18.00;;;7.50;;
72125;SDS011;59999;51.676;22.650;2022-10-26T10:16:03;16.92;;;7.53;;
72125;SDS011;59999;51.676;22.650;2022-10-26T10:18:35;19.02;;;8.32;;
72125;SDS011;59999;51.676;22.650;2022-10-26T10:21:03;19.43;;;8.40;;
72125;SDS011;59999;51.676;22.650;2022-10-26T10:23:31;22.00;;;9.02;;
72125;SDS011;59999;51.676;22.650;2022-10-26T10:26:00;23.02;;;10.10;;
72125;SDS011;59999;51.676;22.650;2022-10-26T10:28:37;22.40;;;10.45;;
72125;SDS011;59999;51.676;22.650;2022-10-26T10:31:27;28.83;;;11.70;;
72125;SDS011;59999;51.676;22.650;2022-10-26T10:33:53;28.30;;;11.87;;
72125;SDS011;59999;51.676;22.650;2022-10-26T10:36:29;48.95;;;21.48;;
72125;SDS011;59999;51.676;22.650;2022-10-26T10:38:55;37.85;;;17.55;;
72125;SDS011;59999;51.676;22.650;2022-10-26T10:41:31;28.17;;;13.60;;
72125;SDS011;59999;51.676;22.650;2022-10-26T10:46:48;22.07;;;11.20;;
72125;SDS011;59999;51.676;22.650;2022-10-26T10:49:19;17.70;;;9.63;;
72125;SDS011;59999;51.676;22.650;2022-10-26T10:51:52;15.85;;;7.07;;
72125;SDS011;59999;51.676;22.650;2022-10-26T10:54:21;16.13;;;7.32;;
72125;SDS011;59999;51.676;22.650;2022-10-26T10:56:56;15.67;;;7.17;;
72125;SDS011;59999;51.676;22.650;2022-10-26T11:00:03;15.73;;;7.70;;
72125;SDS011;59999;51.676;22.650;2022-10-26T11:02:47;13.38;;;5.78;;
72125;SDS011;59999;51.676;22.650;2022-10-26T11:05:22;12.45;;;5.43;;
72125;SDS011;59999;51.676;22.650;2022-10-26T11:08:02;12.88;;;5.60;;
72125;SDS011;59999;51.676;22.650;2022-10-26T11:10:35;9.77;;;4.33;;
72125;SDS011;59999;51.676;22.650;2022-10-26T11:13:06;9.75;;;4.10;;
72125;SDS011;59999;51.676;22.650;2022-10-26T11:15:41;11.57;;;4.53;;
72125;SDS011;59999;51.676;22.650;2022-10-26T11:21:28;10.75;;;4.45;;
72125;SDS011;59999;51.676;22.650;2022-10-26T11:24:03;11.20;;;4.53;;
72125;SDS011;59999;51.676;22.650;2022-10-26T11:26:38;11.68;;;4.53;;
72125;SDS011;59999;51.676;22.650;2022-10-26T11:29:22;10.75;;;4.43;;
72125;SDS011;59999;51.676;22.650;2022-10-26T11:31:58;10.52;;;4.60;;
72125;SDS011;59999;51.676;22.650;2022-10-26T11:34:32;11.18;;;4.90;;
72125;SDS011;59999;51.676;22.650;2022-10-26T11:37:15;11.73;;;4.70;;
72125;SDS011;59999;51.676;22.650;2022-10-26T11:45:56;13.23;;;4.82;;
72125;SDS011;59999;51.676;22.650;2022-10-26T11:54:00;14.38;;;5.55;;
72125;SDS011;59999;51.676;22.650;2022-10-26T11:56:41;12.80;;;5.47;;
72125;SDS011;59999;51.676;22.650;2022-10-26T11:59:13;11.80;;;4.82;;
72125;SDS011;59999;51.676;22.650;2022-10-26T12:01:54;12.50;;;4.88;;
72125;SDS011;59999;51.676;22.650;2022-10-26T12:04:34;11.60;;;5.07;;
72125;SDS011;59999;51.676;22.650;2022-10-26T12:07:05;12.50;;;4.88;;
72125;SDS011;59999;51.676;22.650;2022-10-26T12:09:37;14.07;;;5.18;;
72125;SDS011;59999;51.676;22.650;2022-10-26T12:19:42;13.32;;;5.20;;
72125;SDS011;59999;51.676;22.650;2022-10-26T12:22:16;13.63;;;6.10;;
72125;SDS011;59999;51.676;22.650;2022-10-26T12:24:44;15.53;;;6.30;;
72125;SDS011;59999;51.676;22.650;2022-10-26T12:30:22;12.50;;;4.95;;
72125;SDS011;59999;51.676;22.650;2022-10-26T12:32:52;11.98;;;5.30;;
72125;SDS011;59999;51.676;22.650;2022-10-26T12:35:29;13.48;;;4.93;;
72125;SDS011;59999;51.676;22.650;2022-10-26T12:37:59;11.63;;;5.23;;
72125;SDS011;59999;51.676;22.650;2022-10-26T12:40:46;13.23;;;5.18;;
72125;SDS011;59999;51.676;22.650;2022-10-26T12:45:42;12.40;;;4.90;;
72125;SDS011;59999;51.676;22.650;2022-10-26T12:48:22;12.40;;;5.63;;
72125;SDS011;59999;51.676;22.650;2022-10-26T12:54:03;12.25;;;5.63;;
72125;SDS011;59999;51.676;22.650;2022-10-26T13:02:02;13.60;;;5.30;;
72125;SDS011;59999;51.676;22.650;2022-10-26T13:07:23;13.10;;;5.72;;
72125;SDS011;59999;51.676;22.650;2022-10-26T13:09:54;15.02;;;6.00;;
72125;SDS011;59999;51.676;22.650;2022-10-26T13:12:24;14.10;;;6.28;;
72125;SDS011;59999;51.676;22.650;2022-10-26T13:14:55;14.67;;;6.03;;
72125;SDS011;59999;51.676;22.650;2022-10-26T13:17:26;14.00;;;5.50;;
72125;SDS011;59999;51.676;22.650;2022-10-26T13:19:55;12.95;;;5.45;;
72125;SDS011;59999;51.676;22.650;2022-10-26T13:22:22;12.88;;;5.47;;
72125;SDS011;59999;51.676;22.650;2022-10-26T13:24:53;12.68;;;5.43;;
72125;SDS011;59999;51.676;22.650;2022-10-26T13:27:26;14.13;;;5.70;;
72125;SDS011;59999;51.676;22.650;2022-10-26T13:30:17;17.52;;;8.73;;
72125;SDS011;59999;51.676;22.650;2022-10-26T13:32:54;16.10;;;6.20;;
72125;SDS011;59999;51.676;22.650;2022-10-26T13:35:23;14.02;;;5.85;;
72125;SDS011;59999;51.676;22.650;2022-10-26T13:37:50;13.40;;;5.18;;
72125;SDS011;59999;51.676;22.650;2022-10-26T13:40:27;15.60;;;5.70;;
72125;SDS011;59999;51.676;22.650;2022-10-26T13:42:55;13.50;;;5.85;;
72125;SDS011;59999;51.676;22.650;2022-10-26T13:48:27;13.57;;;6.10;;
72125;SDS011;59999;51.676;22.650;2022-10-26T13:50:54;16.05;;;6.07;;
72125;SDS011;59999;51.676;22.650;2022-10-26T13:58:40;14.80;;;6.47;;
72125;SDS011;59999;51.676;22.650;2022-10-26T14:01:16;14.13;;;7.10;;
72125;SDS011;59999;51.676;22.650;2022-10-26T14:03:45;14.10;;;6.78;;
72125;SDS011;59999;51.676;22.650;2022-10-26T14:09:02;15.13;;;7.80;;
72125;SDS011;59999;51.676;22.650;2022-10-26T14:11:31;19.05;;;8.40;;
72125;SDS011;59999;51.676;22.650;2022-10-26T14:14:10;16.55;;;8.00;;
72125;SDS011;59999;51.676;22.650;2022-10-26T14:16:43;18.70;;;8.85;;
72125;SDS011;59999;51.676;22.650;2022-10-26T14:19:19;24.37;;;9.67;;
72125;SDS011;59999;51.676;22.650;2022-10-26T14:21:47;19.05;;;9.35;;
72125;SDS011;59999;51.676;22.650;2022-10-26T14:24:49;22.02;;;10.15;;
72125;SDS011;59999;51.676;22.650;2022-10-26T14:27:16;22.20;;;10.55;;
72125;SDS011;59999;51.676;22.650;2022-10-26T14:29:43;19.33;;;8.00;;
72125;SDS011;59999;51.676;22.650;2022-10-26T14:32:26;22.10;;;9.90;;
72125;SDS011;59999;51.676;22.650;2022-10-26T14:34:53;20.15;;;9.60;;
72125;SDS011;59999;51.676;22.650;2022-10-26T14:37:24;23.30;;;11.70;;
72125;SDS011;59999;51.676;22.650;2022-10-26T14:40:18;27.75;;;14.13;;
72125;SDS011;59999;51.676;22.650;2022-10-26T14:42:53;29.45;;;14.00;;
72125;SDS011;59999;51.676;22.650;2022-10-26T14:45:29;36.67;;;16.87;;
72125;SDS011;59999;51.676;22.650;2022-10-26T14:47:57;28.90;;;13.77;;
72125;SDS011;59999;51.676;22.650;2022-10-26T14:50:24;24.55;;;11.40;;
72125;SDS011;59999;51.676;22.650;2022-10-26T14:53:14;23.92;;;10.95;;
72125;SDS011;59999;51.676;22.650;2022-10-26T14:55:48;24.17;;;11.30;;
72125;SDS011;59999;51.676;22.650;2022-10-26T14:58:28;22.30;;;11.47;;
72125;SDS011;59999;51.676;22.650;2022-10-26T15:01:14;24.25;;;11.73;;
72125;SDS011;59999;51.676;22.650;2022-10-26T15:03:51;20.48;;;10.52;;
72125;SDS011;59999;51.676;22.650;2022-10-26T15:08:56;35.47;;;17.38;;
72125;SDS011;59999;51.676;22.650;2022-10-26T15:11:28;28.37;;;17.37;;
72125;SDS011;59999;51.676;22.650;2022-10-26T15:13:57;38.80;;;20.02;;
72125;SDS011;59999;51.676;22.650;2022-10-26T15:16:27;83.55;;;36.80;;
72125;SDS011;59999;51.676;22.650;2022-10-26T15:18:58;83.80;;;40.70;;
72125;SDS011;59999;51.676;22.650;2022-10-26T15:21:38;56.50;;;26.13;;
72125;SDS011;59999;51.676;22.650;2022-10-26T15:24:21;41.90;;;19.43;;
72125;SDS011;59999;51.676;22.650;2022-10-26T15:26:52;43.88;;;22.27;;
72125;SDS011;59999;51.676;22.650;2022-10-26T15:29:38;43.53;;;21.58;;
72125;SDS011;59999;51.676;22.650;2022-10-26T15:35:31;53.35;;;22.80;;
72125;SDS011;59999;51.676;22.650;2022-10-26T15:37:47;43.40;;;19.63;;
72125;SDS011;59999;51.676;22.650;2022-10-26T15:40:15;58.30;;;27.48;;
72125;SDS011;59999;51.676;22.650;2022-10-26T15:42:42;68.85;;;29.42;;
72125;SDS011;59999;51.676;22.650;2022-10-26T15:47:55;68.57;;;30.35;;
72125;SDS011;59999;51.676;22.650;2022-10-26T15:50:27;71.70;;;29.03;;
72125;SDS011;59999;51.676;22.650;2022-10-26T15:53:00;61.40;;;27.23;;
72125;SDS011;59999;51.676;22.650;2022-10-26T15:55:27;70.20;;;28.48;;
72125;SDS011;59999;51.676;22.650;2022-10-26T15:57:54;83.10;;;35.35;;
72125;SDS011;59999;51.676;22.650;2022-10-26T16:00:21;168.77;;;76.60;;
72125;SDS011;59999;51.676;22.650;2022-10-26T16:02:47;136.77;;;55.00;;
72125;SDS011;59999;51.676;22.650;2022-10-26T16:05:13;651.42;;;292.88;;
72125;SDS011;59999;51.676;22.650;2022-10-26T16:07:40;613.42;;;221.65;;
72125;SDS011;59999;51.676;22.650;2022-10-26T16:10:11;117.85;;;47.38;;
72125;SDS011;59999;51.676;22.650;2022-10-26T16:12:47;96.68;;;44.58;;
72125;SDS011;59999;51.676;22.650;2022-10-26T16:15:15;142.40;;;62.10;;
72125;SDS011;59999;51.676;22.650;2022-10-26T16:17:45;245.55;;;79.47;;
72125;SDS011;59999;51.676;22.650;2022-10-26T16:20:13;201.88;;;73.32;;
72125;SDS011;59999;51.676;22.650;2022-10-26T16:22:47;160.27;;;66.93;;
72125;SDS011;59999;51.676;22.650;2022-10-26T16:25:15;96.25;;;45.20;;
72125;SDS011;59999;51.676;22.650;2022-10-26T16:27:42;75.77;;;35.20;;
72125;SDS011;59999;51.676;22.650;2022-10-26T16:30:09;80.10;;;46.53;;
72125;SDS011;59999;51.676;22.650;2022-10-26T16:32:37;77.15;;;40.50;;
72125;SDS011;59999;51.676;22.650;2022-10-26T16:35:04;81.78;;;40.63;;
72125;SDS011;59999;51.676;22.650;2022-10-26T16:37:30;83.85;;;40.63;;
72125;SDS011;59999;51.676;22.650;2022-10-26T16:39:57;81.67;;;37.80;;
72125;SDS011;59999;51.676;22.650;2022-10-26T16:42:23;90.70;;;39.72;;
72125;SDS011;59999;51.676;22.650;2022-10-26T16:44:49;103.53;;;42.08;;